Time;durP1;ratioP1;P1;durP2;ratioP2;P2;SDS_P1;SDS_P2;PMS_P1;PMS_P2;Temp;Humidity;BMP_temperature;BMP_pressure;BME280_temperature;BME280_humidity;BME280_pressure;Samples;Min_cycle;Max_cycle;Signal;HPM_P1;HPM_P2
2023/07/28 00:01:15;;;;;;;2.40;1.17;;;16.90;96.50;;;;;;5091296;28;20020;-48
2023/07/28 00:03:44;;;;;;;2.10;1.08;;;16.90;96.50;;;;;;5090812;28;20480;-48
2023/07/28 00:06:11;;;;;;;6.77;1.00;;;16.90;96.50;;;;;;5085403;28;20063;-49
2023/07/28 00:08:38;;;;;;;2.38;1.23;;;16.90;96.50;;;;;;5090874;28;20039;-48
2023/07/28 00:11:08;;;;;;;1.77;0.82;;;16.90;96.50;;;;;;5069938;28;20029;-51
2023/07/28 00:13:35;;;;;;;2.22;1.15;;;16.90;96.50;;;;;;5071359;28;20380;-52
2023/07/28 00:16:01;;;;;;;1.80;1.00;;;16.90;96.50;;;;;;5082454;28;20037;-49
2023/07/28 00:18:28;;;;;;;2.13;1.13;;;16.90;96.50;;;;;;5085671;28;20028;-50
2023/07/28 00:20:55;;;;;;;3.60;1.20;;;16.90;96.50;;;;;;5087015;28;20043;-48
2023/07/28 00:23:24;;;;;;;1.98;0.90;;;16.90;96.50;;;;;;5088040;28;20047;-48
2023/07/28 00:25:51;;;;;;;2.53;1.20;;;16.90;96.50;;;;;;5090746;28;20052;-49
2023/07/28 00:28:18;;;;;;;1.58;0.88;;;16.90;96.50;;;;;;5092997;28;20032;-48
2023/07/28 00:30:49;;;;;;;2.28;1.10;;;16.90;96.50;;;;;;5073860;28;20051;-49
2023/07/28 00:33:16;;;;;;;2.13;1.23;;;16.80;96.50;;;;;;5057690;28;20083;-49
2023/07/28 00:35:43;;;;;;;2.97;1.00;;;16.80;96.50;;;;;;5068711;28;20036;-52
2023/07/28 00:38:10;;;;;;;1.98;1.17;;;16.80;96.50;;;;;;5067895;28;20334;-49
2023/07/28 00:40:36;;;;;;;2.25;1.58;;;16.80;96.60;;;;;;5056281;28;20028;-49
2023/07/28 00:43:03;;;;;;;2.22;1.20;;;16.80;96.50;;;;;;5074548;28;20036;-50
2023/07/28 00:45:35;;;;;;;2.08;1.20;;;16.80;96.50;;;;;;5072501;28;20408;-50
2023/07/28 00:48:04;;;;;;;2.25;1.40;;;16.80;96.50;;;;;;5057654;28;20028;-49
2023/07/28 00:50:36;;;;;;;2.60;1.23;;;16.80;96.60;;;;;;5075202;28;20036;-49
2023/07/28 00:53:02;;;;;;;3.50;1.50;;;16.80;96.60;;;;;;5060071;28;20369;-52
2023/07/28 00:55:29;;;;;;;2.40;1.33;;;16.90;96.60;;;;;;5075824;28;20040;-48
2023/07/28 00:57:57;;;;;;;2.15;1.08;;;16.90;96.60;;;;;;5075753;28;20108;-49
2023/07/28 01:00:27;;;;;;;3.33;1.50;;;16.90;96.60;;;;;;5073658;28;20035;-49
2023/07/28 01:02:55;;;;;;;3.25;1.42;;;16.90;96.60;;;;;;5074605;28;20044;-51
2023/07/28 01:05:32;;;;;;;2.30;1.33;;;16.80;96.60;;;;;;5075101;28;20024;-49
2023/07/28 01:08:22;;;;;;;3.95;1.83;;;16.90;96.60;;;;;;5071705;28;20040;-48
2023/07/28 01:10:50;;;;;;;5.47;2.15;;;16.90;96.60;;;;;;5074155;28;20166;-49
2023/07/28 01:13:19;;;;;;;4.57;2.50;;;16.90;96.60;;;;;;5073861;28;20035;-49
2023/07/28 01:15:45;;;;;;;3.53;2.17;;;16.90;96.60;;;;;;5073402;28;20032;-48
2023/07/28 01:18:13;;;;;;;4.07;2.50;;;16.90;96.60;;;;;;5073383;28;20020;-47
2023/07/28 01:20:40;;;;;;;5.63;2.88;;;16.90;96.60;;;;;;5075156;28;20020;-50
2023/07/28 01:23:34;;;;;;;7.13;3.50;;;16.90;96.60;;;;;;5061313;28;20040;-47
2023/07/28 01:26:30;;;;;;;7.28;5.43;;;16.90;96.60;;;;;;5056000;28;20063;-47
2023/07/28 01:29:00;;;;;;;8.70;5.60;;;16.90;96.70;;;;;;5074555;28;20043;-48
2023/07/28 01:31:26;;;;;;;7.63;5.70;;;16.90;96.70;;;;;;5074011;28;20354;-48
2023/07/28 01:33:53;;;;;;;8.23;5.68;;;16.90;96.70;;;;;;5087976;28;20039;-48
2023/07/28 01:36:20;;;;;;;9.75;7.38;;;16.90;96.70;;;;;;5085875;28;20783;-50
2023/07/28 01:38:45;;;;;;;8.35;5.95;;;16.90;96.80;;;;;;5078297;28;20032;-47
2023/07/28 01:41:13;;;;;;;11.57;5.65;;;16.90;96.80;;;;;;5091550;28;20034;-48
2023/07/28 01:43:43;;;;;;;7.18;4.75;;;16.90;96.80;;;;;;5094164;28;20423;-47
2023/07/28 01:46:09;;;;;;;9.00;6.07;;;16.90;96.80;;;;;;5072934;28;20028;-47
2023/07/28 01:48:36;;;;;;;9.20;5.90;;;16.90;96.80;;;;;;5074826;28;20107;-48
2023/07/28 01:51:05;;;;;;;8.82;5.47;;;16.90;96.80;;;;;;5076959;28;20043;-51
2023/07/28 01:53:35;;;;;;;10.15;5.70;;;16.90;96.80;;;;;;5070290;28;20392;-49
2023/07/28 01:56:02;;;;;;;;;;;16.90;96.90;;;;;;5095495;28;20024;-49
2023/07/28 01:58:29;;;;;;;8.98;4.57;;;16.90;96.90;;;;;;5091494;28;19922;-50
2023/07/28 02:00:58;;;;;;;8.68;4.93;;;16.90;96.90;;;;;;5076391;28;20788;-50
2023/07/28 02:03:25;;;;;;;7.88;4.75;;;16.90;96.90;;;;;;5076753;28;20126;-48
2023/07/28 02:05:52;;;;;;;8.20;4.57;;;16.90;96.90;;;;;;5093952;28;20369;-48
2023/07/28 02:08:19;;;;;;;6.90;4.40;;;16.90;96.90;;;;;;5093926;28;20457;-48
2023/07/28 02:10:46;;;;;;;9.10;5.28;;;16.90;96.90;;;;;;5092322;28;20457;-47
2023/07/28 02:13:11;;;;;;;5.40;3.72;;;16.90;96.90;;;;;;5094818;28;20028;-48
2023/07/28 02:15:37;;;;;;;7.18;4.15;;;16.90;96.90;;;;;;5092977;28;20017;-48
2023/07/28 02:18:04;;;;;;;5.80;4.38;;;16.90;96.90;;;;;;5074475;28;20071;-47
2023/07/28 02:20:30;;;;;;;8.30;4.57;;;16.80;96.90;;;;;;5089341;28;20402;-48
2023/07/28 02:22:57;;;;;;;8.18;4.57;;;16.80;96.90;;;;;;5093836;28;20032;-47
2023/07/28 02:25:24;;;;;;;5.75;3.90;;;16.90;96.90;;;;;;5076879;28;20024;-47
2023/07/28 02:27:51;;;;;;;6.97;4.80;;;16.80;96.90;;;;;;5093354;28;20333;-47
2023/07/28 02:30:18;;;;;;;6.03;4.07;;;16.90;96.90;;;;;;5093336;28;20035;-51
2023/07/28 02:32:45;;;;;;;6.03;4.07;;;16.90;96.90;;;;;;5072221;28;20052;-47
2023/07/28 02:35:12;;;;;;;6.30;4.35;;;16.90;97.00;;;;;;5072266;28;20119;-47
2023/07/28 02:37:38;;;;;;;7.63;4.97;;;16.90;96.90;;;;;;5072148;28;20086;-48
2023/07/28 02:40:06;;;;;;;7.65;4.22;;;16.90;96.90;;;;;;5061852;28;20039;-47
2023/07/28 02:42:35;;;;;;;7.63;4.30;;;16.80;96.90;;;;;;5072806;28;20036;-48
2023/07/28 02:45:01;;;;;;;7.10;4.55;;;16.90;96.90;;;;;;5071871;28;20047;-47
2023/07/28 02:47:27;;;;;;;8.70;4.82;;;16.80;96.90;;;;;;5072132;28;20036;-47
2023/07/28 02:49:57;;;;;;;7.55;5.75;;;16.90;96.90;;;;;;5071313;28;20043;-47
2023/07/28 02:52:24;;;;;;;6.93;5.38;;;16.80;96.90;;;;;;5072906;28;20115;-48
2023/07/28 02:54:52;;;;;;;10.32;5.22;;;16.90;97.00;;;;;;5068072;28;20101;-48
2023/07/28 02:57:19;;;;;;;10.13;6.22;;;16.90;97.00;;;;;;5067911;28;20036;-48
2023/07/28 02:59:46;;;;;;;8.48;5.35;;;16.80;97.00;;;;;;5072971;28;20032;-47
2023/07/28 03:02:13;;;;;;;9.40;4.93;;;16.80;97.00;;;;;;5072464;28;20032;-47
2023/07/28 03:04:39;;;;;;;8.50;4.47;;;16.90;97.00;;;;;;5072697;28;20112;-47
2023/07/28 03:07:08;;;;;;;10.38;5.07;;;16.90;97.00;;;;;;5072402;28;20036;-46
2023/07/28 03:09:37;;;;;;;8.25;4.63;;;16.90;97.00;;;;;;5072818;28;20028;-46
2023/07/28 03:12:05;;;;;;;8.73;5.30;;;16.90;97.00;;;;;;5070607;28;20035;-47
2023/07/28 03:14:33;;;;;;;8.07;5.57;;;16.90;97.00;;;;;;5081341;28;20616;-47
2023/07/28 03:17:01;;;;;;;8.30;4.90;;;16.90;97.00;;;;;;5072294;28;20052;-49
2023/07/28 03:19:28;;;;;;;8.23;5.57;;;16.90;97.00;;;;;;5073259;28;20021;-48
2023/07/28 03:21:55;;;;;;;7.60;5.07;;;16.90;97.00;;;;;;5073398;28;20063;-47
2023/07/28 03:24:21;;;;;;;10.57;5.20;;;16.90;97.00;;;;;;5071484;28;20028;-47
2023/07/28 03:26:48;;;;;;;6.85;4.55;;;16.90;97.00;;;;;;5073290;28;20036;-47
2023/07/28 03:29:15;;;;;;;6.38;4.55;;;16.90;97.00;;;;;;5069104;28;20453;-47
2023/07/28 03:31:40;;;;;;;6.63;4.22;;;16.90;97.00;;;;;;5069208;28;20071;-47
2023/07/28 03:34:07;;;;;;;8.57;5.15;;;16.90;97.00;;;;;;5060935;28;20060;-48
2023/07/28 03:36:34;;;;;;;10.32;5.47;;;16.90;97.00;;;;;;5073190;28;20028;-47
2023/07/28 03:39:02;;;;;;;8.55;4.53;;;16.90;97.00;;;;;;5079778;28;20103;-49
2023/07/28 03:41:28;;;;;;;8.10;5.72;;;16.90;97.00;;;;;;5074556;28;20073;-47
2023/07/28 03:43:55;;;;;;;7.72;5.60;;;16.90;97.00;;;;;;5092905;28;20504;-47
2023/07/28 03:46:22;;;;;;;7.60;4.43;;;16.90;97.00;;;;;;5074249;28;20020;-47
2023/07/28 03:48:49;;;;;;;9.38;5.38;;;16.90;97.10;;;;;;5093276;28;20066;-47
2023/07/28 03:51:15;;;;;;;7.75;4.30;;;16.90;97.00;;;;;;5069672;28;20107;-47
2023/07/28 03:53:42;;;;;;;7.80;4.40;;;16.90;97.00;;;;;;5090664;28;20110;-47
2023/07/28 03:56:13;;;;;;;7.15;4.47;;;16.90;97.00;;;;;;5073068;28;20079;-47
2023/07/28 03:58:41;;;;;;;9.02;3.88;;;17.00;97.10;;;;;;5073494;28;20093;-47
2023/07/28 04:01:09;;;;;;;7.40;4.35;;;17.00;97.00;;;;;;5070356;28;20017;-47
2023/07/28 04:03:38;;;;;;;8.77;5.35;;;17.00;97.10;;;;;;5070385;28;20020;-47
2023/07/28 04:06:14;;;;;;;8.98;5.30;;;17.00;97.10;;;;;;5083952;28;20024;-48
2023/07/28 04:08:42;;;;;;;8.63;5.85;;;17.00;97.10;;;;;;5066351;28;20449;-48
2023/07/28 04:11:08;;;;;;;8.88;5.20;;;17.10;97.10;;;;;;5090514;28;20032;-47
2023/07/28 04:13:38;;;;;;;9.60;5.78;;;17.00;97.10;;;;;;5095222;28;20047;-48
2023/07/28 04:16:05;;;;;;;11.43;7.05;;;17.10;97.10;;;;;;5088511;28;20024;-48
2023/07/28 04:18:32;;;;;;;15.75;7.85;;;17.10;97.10;;;;;;5058946;28;20194;-48
2023/07/28 04:21:03;;;;;;;15.07;8.07;;;17.10;97.10;;;;;;5076463;28;20029;-47
2023/07/28 04:23:29;;;;;;;13.60;7.13;;;17.10;97.10;;;;;;5091434;28;20371;-47
2023/07/28 04:25:55;;;;;;;14.05;8.02;;;17.10;97.10;;;;;;5088393;28;20471;-47
2023/07/28 04:28:24;;;;;;;13.52;7.88;;;17.10;97.10;;;;;;5086478;28;20056;-48
2023/07/28 04:30:50;;;;;;;12.02;6.53;;;17.10;97.10;;;;;;5085892;28;20761;-48
2023/07/28 04:33:17;;;;;;;10.07;5.97;;;17.20;97.10;;;;;;5085093;28;20058;-47
2023/07/28 04:35:44;;;;;;;13.43;8.10;;;17.20;97.10;;;;;;5085874;28;20414;-48
2023/07/28 04:38:11;;;;;;;12.32;7.22;;;17.20;97.10;;;;;;5087053;28;20026;-47
2023/07/28 04:40:41;;;;;;;10.80;6.68;;;17.20;97.10;;;;;;5085753;28;20506;-47
2023/07/28 04:43:09;;;;;;;11.20;5.82;;;17.30;97.10;;;;;;5091834;28;20103;-47
2023/07/28 04:45:37;;;;;;;10.35;6.03;;;17.30;97.10;;;;;;5091899;28;20032;-47
2023/07/28 04:48:04;;;;;;;12.93;5.50;;;17.40;97.10;;;;;;5075777;28;20044;-48
2023/07/28 04:50:33;;;;;;;6.78;4.35;;;17.40;97.00;;;;;;5086390;28;20032;-48
2023/07/28 04:52:59;;;;;;;5.90;3.30;;;17.40;97.00;;;;;;5085063;28;20279;-47
2023/07/28 04:55:26;;;;;;;5.53;3.22;;;17.40;97.00;;;;;;5083097;28;20020;-48
2023/07/28 04:57:55;;;;;;;5.45;3.22;;;17.40;97.00;;;;;;5085188;28;20033;-48
2023/07/28 05:00:23;;;;;;;5.18;3.08;;;17.40;97.00;;;;;;5085739;28;20024;-47
2023/07/28 05:02:49;;;;;;;6.45;4.43;;;17.40;97.00;;;;;;5083148;28;20115;-47
2023/07/28 05:05:16;;;;;;;5.55;3.53;;;17.40;96.90;;;;;;5076654;28;20042;-47
2023/07/28 05:07:43;;;;;;;7.05;3.85;;;17.40;97.00;;;;;;5093650;28;20027;-47
2023/07/28 05:10:09;;;;;;;6.45;4.47;;;17.40;97.00;;;;;;5076916;28;20353;-47
2023/07/28 05:12:37;;;;;;;6.55;3.95;;;17.50;97.00;;;;;;5095231;28;20039;-48
2023/07/28 05:15:10;;;;;;;6.18;4.30;;;17.50;97.00;;;;;;5094291;28;20051;-48
2023/07/28 05:17:37;;;;;;;5.68;3.17;;;17.60;97.00;;;;;;5093852;28;20032;-47
2023/07/28 05:20:06;;;;;;;5.70;3.83;;;17.70;97.00;;;;;;5093833;28;20060;-48
2023/07/28 05:22:33;;;;;;;7.03;3.88;;;17.80;97.00;;;;;;5064135;28;20470;-47
2023/07/28 05:24:59;;;;;;;4.68;3.08;;;17.80;97.00;;;;;;5084941;28;20040;-47
2023/07/28 05:27:28;;;;;;;4.75;3.10;;;17.90;96.90;;;;;;5085748;28;20099;-48
2023/07/28 05:29:55;;;;;;;4.03;3.10;;;17.90;96.90;;;;;;5086953;28;20036;-48
2023/07/28 05:32:21;;;;;;;4.72;2.88;;;17.90;96.80;;;;;;5072892;28;20040;-50
2023/07/28 05:34:48;;;;;;;6.18;3.60;;;17.90;96.80;;;;;;5073531;28;20036;-48
2023/07/28 05:37:15;;;;;;;3.92;2.70;;;17.90;96.70;;;;;;5070334;28;20454;-48
2023/07/28 05:39:42;;;;;;;5.03;3.28;;;17.90;96.80;;;;;;5065466;28;20048;-48
2023/07/28 05:42:12;;;;;;;6.35;3.25;;;18.00;96.70;;;;;;5065010;28;20051;-49
2023/07/28 05:44:39;;;;;;;5.30;3.45;;;18.00;96.70;;;;;;5066456;28;20454;-49
2023/07/28 05:47:06;;;;;;;4.80;2.65;;;17.90;96.60;;;;;;5062234;28;21710;-49
2023/07/28 05:49:35;;;;;;;5.45;2.70;;;18.00;96.70;;;;;;5066148;28;20021;-51
2023/07/28 05:52:04;;;;;;;5.83;3.97;;;18.00;96.60;;;;;;5070557;28;20056;-50
2023/07/28 05:54:31;;;;;;;;;;;17.90;96.50;;;;;;5061359;28;20107;-51
2023/07/28 05:56:58;;;;;;;6.70;3.22;;;18.00;96.60;;;;;;5065146;28;19968;-50
2023/07/28 05:59:27;;;;;;;4.75;2.88;;;18.10;96.60;;;;;;5069169;28;20091;-49
2023/07/28 06:01:56;;;;;;;7.30;2.92;;;18.10;96.50;;;;;;5063662;28;20449;-51
2023/07/28 06:04:22;;;;;;;5.07;3.38;;;18.20;96.40;;;;;;5063537;28;20067;-52
2023/07/28 06:06:49;;;;;;;4.22;2.55;;;18.20;96.30;;;;;;5072514;28;20105;-51
2023/07/28 06:09:17;;;;;;;5.07;2.67;;;18.20;96.40;;;;;;5066005;28;20152;-49
2023/07/28 06:11:44;;;;;;;4.25;2.97;;;18.20;96.30;;;;;;5065215;28;20029;-49
2023/07/28 06:14:13;;;;;;;4.88;2.72;;;18.20;96.40;;;;;;5073955;28;20337;-51
2023/07/28 06:16:39;;;;;;;4.60;2.67;;;18.20;96.30;;;;;;5073415;28;20060;-51
2023/07/28 06:19:05;;;;;;;4.63;2.80;;;18.30;96.40;;;;;;5073540;28;20024;-49
2023/07/28 06:21:32;;;;;;;3.78;2.70;;;18.40;96.40;;;;;;5074483;28;20449;-51
2023/07/28 06:23:58;;;;;;;4.80;3.13;;;18.40;96.20;;;;;;5072800;28;20350;-49
2023/07/28 06:26:25;;;;;;;4.57;3.03;;;18.40;96.20;;;;;;5069873;28;20479;-51
2023/07/28 06:28:51;;;;;;;5.25;2.90;;;18.50;96.20;;;;;;5070556;28;20068;-50
2023/07/28 06:31:18;;;;;;;3.72;2.28;;;18.50;96.20;;;;;;5060838;28;20062;-49
2023/07/28 06:33:46;;;;;;;5.18;2.58;;;18.60;96.20;;;;;;5082360;28;20063;-51
2023/07/28 06:36:17;;;;;;;4.07;2.60;;;18.60;96.00;;;;;;5065686;28;20508;-49
2023/07/28 06:38:45;;;;;;;3.97;2.58;;;18.60;96.10;;;;;;5079732;28;20036;-50
2023/07/28 06:41:12;;;;;;;5.40;2.20;;;18.70;96.10;;;;;;5082042;28;20032;-49
2023/07/28 06:43:41;;;;;;;7.72;2.88;;;18.70;96.00;;;;;;5084992;28;20024;-49
2023/07/28 06:46:06;;;;;;;3.10;1.93;;;18.60;95.70;;;;;;5088743;28;20368;-52
2023/07/28 06:48:38;;;;;;;4.47;2.33;;;18.70;95.80;;;;;;5090747;28;20099;-53
2023/07/28 06:51:06;;;;;;;4.88;2.90;;;18.90;95.90;;;;;;5075673;28;20028;-54
2023/07/28 06:53:34;;;;;;;4.00;2.60;;;18.80;95.60;;;;;;5088793;28;20032;-49
2023/07/28 06:56:03;;;;;;;4.03;2.55;;;18.90;95.60;;;;;;5087488;28;20020;-49
2023/07/28 06:58:32;;;;;;;7.43;2.72;;;19.00;95.60;;;;;;5090716;28;20460;-50
2023/07/28 07:01:00;;;;;;;4.68;2.60;;;18.90;95.40;;;;;;5084498;28;20036;-49
2023/07/28 07:03:28;;;;;;;4.25;2.85;;;18.90;95.40;;;;;;5083749;28;20032;-51
2023/07/28 07:05:54;;;;;;;4.18;2.72;;;18.90;95.20;;;;;;5082267;28;20032;-56
2023/07/28 07:08:23;;;;;;;3.88;2.10;;;18.70;94.80;;;;;;5091083;28;20169;-49
2023/07/28 07:10:56;;;;;;;3.22;2.20;;;18.80;95.00;;;;;;5091124;28;20062;-53
2023/07/28 07:13:23;;;;;;;3.65;2.17;;;18.80;95.10;;;;;;5082319;28;20054;-51
2023/07/28 07:15:49;;;;;;;2.97;2.08;;;18.90;95.20;;;;;;5067467;28;20112;-49
2023/07/28 07:18:16;;;;;;;3.67;2.17;;;18.90;95.00;;;;;;5082992;28;20078;-54
2023/07/28 07:20:45;;;;;;;5.05;2.50;;;18.90;94.70;;;;;;5090908;28;20043;-50
2023/07/28 07:23:13;;;;;;;3.90;1.95;;;18.90;94.70;;;;;;5081822;28;20032;-51
2023/07/28 07:25:42;;;;;;;2.75;1.80;;;18.90;94.70;;;;;;5068167;28;20028;-55
2023/07/28 07:28:09;;;;;;;4.10;2.33;;;18.90;94.90;;;;;;5065077;28;20060;-52
2023/07/28 07:30:36;;;;;;;3.72;2.72;;;18.90;94.50;;;;;;5063653;28;20609;-49
2023/07/28 07:33:03;;;;;;;3.78;2.35;;;18.90;94.40;;;;;;5083121;28;20051;-49
2023/07/28 07:35:35;;;;;;;4.05;2.53;;;18.90;94.60;;;;;;5085295;28;20023;-54
2023/07/28 07:38:04;;;;;;;3.85;2.38;;;18.90;94.50;;;;;;5077090;28;20028;-50
2023/07/28 07:40:29;;;;;;;2.97;1.73;;;18.90;94.40;;;;;;5088099;28;20032;-53
2023/07/28 07:42:56;;;;;;;4.05;2.67;;;18.90;94.40;;;;;;5075098;28;20089;-50
2023/07/28 07:45:23;;;;;;;3.25;1.98;;;18.80;94.30;;;;;;5074541;28;20036;-51
2023/07/28 07:47:50;;;;;;;6.57;2.38;;;18.80;94.40;;;;;;5090993;28;20032;-52
2023/07/28 07:50:17;;;;;;;3.92;2.53;;;18.70;94.30;;;;;;5092981;28;20047;-50
2023/07/28 07:52:44;;;;;;;3.45;1.48;;;18.60;94.20;;;;;;5073536;28;20032;-49
2023/07/28 07:55:13;;;;;;;3.78;1.67;;;18.60;94.30;;;;;;5092654;28;20032;-49
2023/07/28 07:57:43;;;;;;;2.88;1.20;;;18.60;94.40;;;;;;5089640;28;20047;-54
2023/07/28 08:00:10;;;;;;;4.28;1.40;;;18.60;94.40;;;;;;5080750;28;20517;-51
2023/07/28 08:02:37;;;;;;;5.90;1.42;;;18.60;94.30;;;;;;5077344;28;20085;-54
2023/07/28 08:05:04;;;;;;;1.77;0.80;;;18.50;94.40;;;;;;5084038;28;20456;-49
2023/07/28 08:07:31;;;;;;;2.30;1.10;;;18.40;94.40;;;;;;5089194;28;20077;-50
2023/07/28 08:09:58;;;;;;;1.67;0.88;;;18.40;94.60;;;;;;5091015;28;20168;-52
2023/07/28 08:12:25;;;;;;;2.92;1.17;;;18.50;94.60;;;;;;5066216;28;20051;-49
2023/07/28 08:14:52;;;;;;;7.10;1.48;;;18.50;94.70;;;;;;5091137;28;20028;-52
2023/07/28 08:17:18;;;;;;;2.47;1.52;;;18.50;94.80;;;;;;5086688;28;20031;-48
2023/07/28 08:19:45;;;;;;;2.67;1.77;;;18.50;94.80;;;;;;5086875;28;20405;-48
2023/07/28 08:22:12;;;;;;;5.07;0.82;;;18.60;94.90;;;;;;5082352;28;20465;-51
2023/07/28 08:24:38;;;;;;;5.18;1.55;;;18.60;94.90;;;;;;5082747;28;20024;-51
2023/07/28 08:27:08;;;;;;;5.22;1.50;;;18.80;95.10;;;;;;5083133;28;20360;-54
2023/07/28 08:29:34;;;;;;;5.40;1.20;;;18.90;95.00;;;;;;5084052;28;20032;-51
2023/07/28 08:32:00;;;;;;;2.35;1.30;;;18.90;94.80;;;;;;5068458;28;20531;-49
2023/07/28 08:34:27;;;;;;;2.25;1.15;;;18.90;94.60;;;;;;5066488;28;20200;-49
2023/07/28 08:36:54;;;;;;;2.22;1.15;;;18.90;94.40;;;;;;5089398;28;20020;-50
2023/07/28 08:39:21;;;;;;;2.45;1.13;;;18.90;94.30;;;;;;5078742;28;20094;-47
2023/07/28 08:41:47;;;;;;;3.95;1.35;;;19.00;94.40;;;;;;5080022;28;20017;-46
2023/07/28 08:44:15;;;;;;;1.55;1.17;;;19.10;94.50;;;;;;5087638;28;20020;-47
2023/07/28 08:46:43;;;;;;;1.48;0.90;;;19.10;94.50;;;;;;5073832;28;20101;-47
2023/07/28 08:49:10;;;;;;;1.67;0.93;;;19.20;94.50;;;;;;5089991;28;20118;-47
2023/07/28 08:51:51;;;;;;;2.30;0.90;;;19.10;93.90;;;;;;5083235;28;20663;-48
2023/07/28 08:54:18;;;;;;;1.15;0.70;;;19.00;94.00;;;;;;5078935;28;20060;-47
2023/07/28 08:56:45;;;;;;;1.45;0.90;;;18.90;93.90;;;;;;5090842;28;20036;-48
2023/07/28 08:59:11;;;;;;;1.67;0.98;;;18.90;93.90;;;;;;5074090;28;20449;-47
2023/07/28 09:01:43;;;;;;;2.05;1.23;;;18.90;94.20;;;;;;5094035;28;20031;-46
2023/07/28 09:04:13;;;;;;;2.25;1.23;;;18.90;94.20;;;;;;5094759;28;20031;-46
2023/07/28 09:06:45;;;;;;;6.85;1.92;;;18.80;94.30;;;;;;5086372;28;20044;-53
2023/07/28 09:09:17;;;;;;;4.25;1.48;;;18.80;94.50;;;;;;5084880;28;20040;-47
2023/07/28 09:12:01;;;;;;;1.30;0.70;;;18.90;94.70;;;;;;5085812;28;20035;-50
2023/07/28 09:14:27;;;;;;;1.73;0.68;;;18.90;94.80;;;;;;5081023;28;20027;-47
2023/07/28 09:16:53;;;;;;;2.00;0.82;;;19.10;94.80;;;;;;5087465;28;20071;-47
2023/07/28 09:19:21;;;;;;;1.58;0.73;;;19.10;94.70;;;;;;5069841;28;20357;-47
2023/07/28 09:21:59;;;;;;;4.75;1.05;;;19.10;94.40;;;;;;5075027;28;20031;-48
2023/07/28 09:24:32;;;;;;;3.20;1.90;;;19.10;94.20;;;;;;5091605;28;20472;-47
2023/07/28 09:27:02;;;;;;;1.02;0.70;;;19.00;94.10;;;;;;5076618;28;20036;-47
2023/07/28 09:29:31;;;;;;;1.23;0.80;;;19.10;94.40;;;;;;5083323;28;20062;-47
2023/07/28 09:32:08;;;;;;;2.72;1.08;;;19.30;94.50;;;;;;5086136;28;20414;-48
2023/07/28 09:34:35;;;;;;;2.85;1.30;;;19.40;94.40;;;;;;5094059;28;20060;-48
2023/07/28 09:37:06;;;;;;;1.50;1.05;;;19.50;94.40;;;;;;5083526;28;20156;-49
2023/07/28 09:39:35;;;;;;;5.05;1.42;;;19.50;93.90;;;;;;5092651;28;20027;-47
2023/07/28 09:42:04;;;;;;;12.00;2.20;;;19.40;93.50;;;;;;5088457;28;20767;-49
2023/07/28 09:44:34;;;;;;;11.38;2.50;;;19.40;93.30;;;;;;5070949;28;20038;-48
2023/07/28 09:47:01;;;;;;;7.40;1.70;;;19.20;93.10;;;;;;5083996;28;20484;-47
2023/07/28 09:49:48;;;;;;;3.58;0.95;;;19.00;93.20;;;;;;5082397;28;20024;-47
2023/07/28 09:52:18;;;;;;;1.75;0.93;;;18.90;93.40;;;;;;5074090;28;20039;-45
2023/07/28 09:54:50;;;;;;;1.52;0.77;;;18.90;93.70;;;;;;5090407;28;20036;-46
2023/07/28 09:57:20;;;;;;;2.33;1.02;;;19.00;94.10;;;;;;5075693;28;20028;-46
2023/07/28 09:59:50;;;;;;;1.85;1.05;;;19.20;94.30;;;;;;5092668;28;20337;-47
2023/07/28 10:02:17;;;;;;;2.45;1.33;;;19.40;94.30;;;;;;5091409;28;20036;-48
2023/07/28 10:04:44;;;;;;;2.35;1.40;;;19.40;93.70;;;;;;5091456;28;20582;-52
2023/07/28 10:07:12;;;;;;;2.45;1.33;;;19.30;93.50;;;;;;5093487;28;20032;-47
2023/07/28 10:09:39;;;;;;;1.98;0.93;;;19.40;93.50;;;;;;5091282;28;20036;-50
2023/07/28 10:12:18;;;;;;;2.05;0.90;;;19.50;93.70;;;;;;5090974;28;20034;-51
2023/07/28 10:14:44;;;;;;;1.60;0.70;;;19.80;93.90;;;;;;5085313;28;20433;-50
2023/07/28 10:17:16;;;;;;;1.80;1.25;;;19.90;93.80;;;;;;5091193;28;20106;-53
2023/07/28 10:19:43;;;;;;;2.70;0.88;;;20.10;93.70;;;;;;5086141;28;20019;-53
2023/07/28 10:22:11;;;;;;;4.25;0.95;;;20.20;92.80;;;;;;5079793;28;20326;-50
2023/07/28 10:25:00;;;;;;;1.60;0.80;;;19.90;92.00;;;;;;5083478;28;20024;-52
2023/07/28 10:27:38;;;;;;;2.03;1.10;;;19.90;91.40;;;;;;5068049;28;20024;-50
2023/07/28 10:30:12;;;;;;;2.08;1.00;;;19.80;91.50;;;;;;5082166;28;20043;-55
2023/07/28 10:32:44;;;;;;;1.35;0.88;;;19.80;91.10;;;;;;5084068;28;20048;-53
2023/07/28 10:35:24;;;;;;;3.13;1.10;;;19.70;91.10;;;;;;5085950;28;20056;-50
2023/07/28 10:37:53;;;;;;;2.53;1.13;;;19.70;91.40;;;;;;5080670;28;20132;-53
2023/07/28 10:40:35;;;;;;;2.65;1.10;;;19.60;91.30;;;;;;5083461;28;20020;-55
2023/07/28 10:43:05;;;;;;;2.03;0.95;;;19.60;92.00;;;;;;5079352;28;20028;-51
2023/07/28 10:45:32;;;;;;;2.15;0.80;;;19.80;91.90;;;;;;5091342;28;20032;-55
2023/07/28 10:48:00;;;;;;;2.45;1.10;;;19.90;91.50;;;;;;5082734;28;20414;-52
2023/07/28 10:50:31;;;;;;;4.22;1.48;;;20.10;90.80;;;;;;5082444;28;20024;-54
2023/07/28 10:52:58;;;;;;;3.20;1.77;;;20.20;89.90;;;;;;5056999;28;20032;-55
2023/07/28 10:55:29;;;;;;;3.53;1.42;;;20.20;89.40;;;;;;5087935;28;20032;-52
2023/07/28 10:57:58;;;;;;;2.53;1.45;;;20.00;89.70;;;;;;5084719;28;20027;-55
2023/07/28 11:00:25;;;;;;;2.60;1.57;;;20.00;89.80;;;;;;5090681;28;20035;-54
2023/07/28 11:02:53;;;;;;;1.45;0.70;;;19.90;89.80;;;;;;5084294;28;20284;-52
2023/07/28 11:05:27;;;;;;;3.20;1.35;;;19.90;90.00;;;;;;5085024;28;20024;-53
2023/07/28 11:08:01;;;;;;;2.92;1.33;;;19.90;90.10;;;;;;5083355;28;20094;-55
2023/07/28 11:10:32;;;;;;;4.32;1.60;;;19.80;90.10;;;;;;5062499;28;20028;-57
2023/07/28 11:13:02;;;;;;;4.18;1.63;;;19.70;90.50;;;;;;5081815;28;20445;-54
2023/07/28 11:15:28;;;;;;;2.78;1.50;;;19.60;90.40;;;;;;5081528;28;20036;-55
2023/07/28 11:17:57;;;;;;;4.38;1.38;;;19.50;90.60;;;;;;5082301;28;20028;-51
2023/07/28 11:20:30;;;;;;;4.22;1.58;;;19.40;90.60;;;;;;5061052;28;20028;-53
2023/07/28 11:23:05;;;;;;;2.95;1.80;;;19.40;90.90;;;;;;5091604;28;20062;-56
2023/07/28 11:25:33;;;;;;;2.25;1.48;;;19.40;91.40;;;;;;5087751;28;20055;-54
2023/07/28 11:28:05;;;;;;;5.03;1.90;;;19.40;91.60;;;;;;5082098;28;20035;-53
2023/07/28 11:30:37;;;;;;;4.95;2.05;;;19.40;91.60;;;;;;5082706;28;20016;-51
2023/07/28 11:33:08;;;;;;;3.88;1.70;;;19.60;91.20;;;;;;5078717;28;20048;-53
2023/07/28 11:35:39;;;;;;;2.92;1.45;;;19.60;91.10;;;;;;5070340;28;20085;-50
2023/07/28 11:38:08;;;;;;;3.88;1.95;;;19.70;90.90;;;;;;5088775;28;20030;-55
2023/07/28 11:40:37;;;;;;;3.08;1.88;;;19.70;90.80;;;;;;5085827;28;20032;-54
2023/07/28 11:43:04;;;;;;;4.20;2.72;;;19.60;90.80;;;;;;5066841;28;20027;-56
2023/07/28 11:45:30;;;;;;;3.00;2.17;;;19.50;90.40;;;;;;5083653;28;20032;-51
2023/07/28 11:48:15;;;;;;;5.93;3.10;;;19.40;90.70;;;;;;5079617;28;20032;-56
2023/07/28 11:50:42;;;;;;;4.78;2.28;;;19.40;91.00;;;;;;5079152;28;20081;-51
2023/07/28 11:53:09;;;;;;;4.88;3.22;;;19.40;90.90;;;;;;5080240;28;20028;-54
2023/07/28 11:55:37;;;;;;;3.65;2.55;;;19.30;91.10;;;;;;5084140;28;20044;-55
2023/07/28 11:58:06;;;;;;;4.68;3.55;;;19.20;91.60;;;;;;5088476;28;20052;-56
2023/07/28 12:00:55;;;;;;;6.60;4.28;;;19.20;91.60;;;;;;5091148;28;20356;-53
2023/07/28 12:03:29;;;;;;;6.07;4.68;;;19.30;91.60;;;;;;5079747;28;20028;-54
2023/07/28 12:06:09;;;;;;;5.05;3.60;;;19.60;91.90;;;;;;5081175;28;20031;-52
2023/07/28 12:08:37;;;;;;;5.70;3.22;;;20.10;91.70;;;;;;5087115;28;20016;-56
2023/07/28 12:11:05;;;;;;;3.97;3.10;;;20.40;90.10;;;;;;5082930;28;20513;-53
2023/07/28 12:13:32;;;;;;;3.95;3.17;;;20.80;89.10;;;;;;5078459;28;20113;-56
2023/07/28 12:15:58;;;;;;;4.40;3.10;;;21.00;88.40;;;;;;5069873;28;20645;-56
2023/07/28 12:18:30;;;;;;;4.35;3.15;;;21.10;86.60;;;;;;5080797;28;20022;-59
2023/07/28 12:20:59;;;;;;;5.03;2.83;;;21.00;86.40;;;;;;5067329;28;20035;-58
2023/07/28 12:23:26;;;;;;;5.22;3.00;;;20.90;86.60;;;;;;5086181;28;20033;-58
2023/07/28 12:25:55;;;;;;;7.10;3.05;;;20.90;87.40;;;;;;5086841;28;20051;-51
2023/07/28 12:28:22;;;;;;;3.90;2.27;;;20.90;86.80;;;;;;5082313;28;20042;-57
2023/07/28 12:30:52;;;;;;;5.22;2.75;;;20.90;87.40;;;;;;5083715;28;20032;-53
2023/07/28 12:33:18;;;;;;;4.88;3.08;;;21.30;86.80;;;;;;5066826;28;20040;-56
2023/07/28 12:35:45;;;;;;;3.95;2.42;;;21.40;86.00;;;;;;5074715;28;20497;-53
2023/07/28 12:38:12;;;;;;;3.63;2.55;;;21.70;85.40;;;;;;5073126;28;20017;-52
2023/07/28 12:40:39;;;;;;;4.32;2.10;;;21.60;84.70;;;;;;5065564;28;20035;-55
2023/07/28 12:43:06;;;;;;;6.15;2.15;;;21.60;84.10;;;;;;5084673;28;20028;-56
2023/07/28 12:45:33;;;;;;;2.80;1.60;;;21.60;83.30;;;;;;5091171;28;20033;-56
2023/07/28 12:48:00;;;;;;;3.10;2.05;;;21.80;84.20;;;;;;5071469;28;20028;-54
2023/07/28 12:50:25;;;;;;;3.15;2.05;;;22.00;83.60;;;;;;5090156;28;20020;-51
2023/07/28 12:52:55;;;;;;;4.13;2.17;;;22.00;82.00;;;;;;5088774;28;20344;-50
2023/07/28 12:55:22;;;;;;;;;;;22.10;82.10;;;;;;5096055;28;20028;-51